Time;durP1;ratioP1;P1;durP2;ratioP2;P2;SDS_P1;SDS_P2;PMS_P1;PMS_P2;Temp;Humidity;BMP_temperature;BMP_pressure;BME280_temperature;BME280_humidity;BME280_pressure;Samples;Min_cycle;Max_cycle;Signal;HPM_P1;HPM_P2
2022/07/11 00:00:16;;;;;;;67.97;7.40;;;18.90;99.90;;;;;;5056015;28;20391;-87
2022/07/11 00:02:50;;;;;;;68.63;7.37;;;18.90;99.90;;;;;;5056138;28;20957;-87
2022/07/11 00:05:18;;;;;;;66.67;5.47;;;18.90;99.90;;;;;;5054456;28;20400;-87
2022/07/11 00:07:44;;;;;;;65.27;5.70;;;18.90;99.90;;;;;;5055893;28;21000;-87
2022/07/11 00:10:10;;;;;;;66.23;7.37;;;18.90;99.90;;;;;;5055771;28;20404;-87
2022/07/11 00:12:35;;;;;;;66.80;6.07;;;18.80;99.90;;;;;;5055430;28;20165;-87
2022/07/11 00:15:04;;;;;;;66.00;5.33;;;18.90;99.90;;;;;;5054370;28;20192;-87
2022/07/11 00:17:53;;;;;;;64.87;5.97;;;18.90;99.90;;;;;;5053971;28;20638;-87
2022/07/11 00:20:18;;;;;;;65.37;6.17;;;18.90;99.90;;;;;;5054353;28;20794;-87
2022/07/11 00:22:47;;;;;;;66.37;6.97;;;18.90;99.90;;;;;;5054452;28;20447;-87
2022/07/11 00:25:12;;;;;;;66.57;6.50;;;18.90;99.90;;;;;;5055573;28;20161;-87
2022/07/11 00:27:47;;;;;;;71.20;6.13;;;19.00;99.80;;;;;;5055346;28;20415;-87
2022/07/11 00:30:13;;;;;;;70.30;6.60;;;18.90;99.90;;;;;;5055758;28;20160;-87
2022/07/11 00:32:41;;;;;;;66.90;8.07;;;19.00;99.90;;;;;;5055746;28;20510;-87
2022/07/11 00:35:07;;;;;;;66.20;7.47;;;18.90;99.90;;;;;;5055707;28;20168;-87
2022/07/11 00:37:39;;;;;;;65.33;6.20;;;18.90;99.90;;;;;;5053928;28;20435;-87
2022/07/11 00:40:08;;;;;;;66.77;6.57;;;18.90;99.90;;;;;;5055153;28;20387;-87
2022/07/11 00:45:33;;;;;;;68.63;10.07;;;18.70;99.90;;;;;;5033334;28;21004;-87
2022/07/11 00:48:22;;;;;;;70.57;12.60;;;18.70;99.90;;;;;;5016452;28;20464;-87
2022/07/11 00:51:05;;;;;;;67.80;14.57;;;18.60;99.90;;;;;;5041986;28;20415;-87
2022/07/11 00:53:31;;;;;;;70.00;13.53;;;18.60;99.90;;;;;;5055043;28;20384;-87
2022/07/11 00:56:10;;;;;;;69.60;12.87;;;18.60;99.90;;;;;;5055103;28;20925;-87
2022/07/11 00:59:02;;;;;;;67.43;9.27;;;18.70;99.90;;;;;;5078611;22;20481;-87
2022/07/11 01:01:28;;;;;;;66.40;7.67;;;18.80;99.90;;;;;;5075193;28;20399;-87
2022/07/11 01:03:54;;;;;;;66.30;7.93;;;18.80;99.90;;;;;;5056917;28;20465;-87
2022/07/11 01:06:29;;;;;;;67.37;11.67;;;18.70;99.90;;;;;;5074651;28;20238;-87
2022/07/11 01:08:57;;;;;;;69.40;7.90;;;18.70;99.90;;;;;;5074612;28;20444;-87
2022/07/11 01:11:23;;;;;;;68.80;7.27;;;18.80;99.90;;;;;;5074942;28;20982;-87
2022/07/11 01:13:52;;;;;;;66.87;8.60;;;18.80;99.90;;;;;;5074901;28;20402;-87
2022/07/11 01:16:22;;;;;;;68.23;8.80;;;18.70;99.90;;;;;;5074256;28;20406;-87
2022/07/11 01:18:52;;;;;;;66.30;9.70;;;18.70;99.90;;;;;;5056292;28;20796;-87
2022/07/11 01:21:30;;;;;;;68.20;8.53;;;18.70;99.90;;;;;;5056217;28;20464;-87
2022/07/11 01:24:01;;;;;;;66.30;8.37;;;18.70;99.90;;;;;;5055026;28;20527;-87
2022/07/11 01:26:28;;;;;;;69.77;7.40;;;18.70;99.90;;;;;;5074691;28;20386;-87
2022/07/11 01:29:11;;;;;;;67.10;7.47;;;18.70;99.90;;;;;;5075900;28;20497;-87
2022/07/11 01:31:47;;;;;;;67.27;7.80;;;18.80;99.90;;;;;;5056652;28;20394;-87
2022/07/11 01:34:13;;;;;;;67.10;9.80;;;18.70;99.90;;;;;;5056531;28;20413;-87
2022/07/11 01:36:39;;;;;;;66.97;8.87;;;18.70;99.90;;;;;;5074096;28;20493;-87
2022/07/11 01:39:05;;;;;;;68.90;8.47;;;18.70;99.90;;;;;;5074346;28;20217;-87
2022/07/11 01:41:30;;;;;;;68.20;11.30;;;18.70;99.90;;;;;;5056147;28;20410;-87
2022/07/11 01:43:56;;;;;;;67.33;9.07;;;18.70;99.90;;;;;;5057010;28;20524;-88
2022/07/11 01:46:22;;;;;;;68.60;11.20;;;18.60;99.90;;;;;;5056302;28;20629;-87
2022/07/11 01:48:48;;;;;;;67.50;10.00;;;18.60;99.90;;;;;;5055914;28;20686;-87
2022/07/11 01:51:17;;;;;;;67.67;9.70;;;18.60;99.90;;;;;;5055390;28;20655;-87
2022/07/11 01:53:42;;;;;;;72.00;10.60;;;18.60;99.90;;;;;;5055918;28;20502;-87
2022/07/11 01:56:14;;;;;;;69.90;11.17;;;18.60;99.90;;;;;;5055867;28;20452;-88
2022/07/11 02:01:29;;;;;;;67.00;10.40;;;18.50;99.90;;;;;;5065903;28;20523;-87
2022/07/11 02:04:01;;;;;;;67.00;10.17;;;18.50;99.90;;;;;;5074035;28;20465;-87
2022/07/11 02:06:31;;;;;;;69.53;13.13;;;18.60;99.90;;;;;;5055635;28;20398;-87
2022/07/11 02:09:00;;;;;;;69.83;15.37;;;18.50;99.90;;;;;;5055498;28;20489;-87
2022/07/11 02:11:29;;;;;;;70.90;14.67;;;18.40;99.90;;;;;;5073609;28;20395;-87
2022/07/11 02:13:57;;;;;;;72.27;17.33;;;18.40;99.90;;;;;;5056181;28;20411;-87
2022/07/11 02:16:26;;;;;;;70.97;18.00;;;18.40;99.90;;;;;;5055178;28;20414;-87
2022/07/11 02:18:52;;;;;;;74.37;21.80;;;18.30;99.90;;;;;;5055214;28;20431;-87
2022/07/11 02:21:18;;;;;;;70.47;18.03;;;18.30;99.90;;;;;;5073135;28;20915;-88
2022/07/11 02:24:02;;;;;;;74.00;27.17;;;18.40;99.90;;;;;;5073303;28;20184;-87
2022/07/11 02:26:40;;;;;;;72.00;24.63;;;18.20;99.90;;;;;;5073639;28;20541;-87
2022/07/11 02:29:27;;;;;;;73.37;29.30;;;18.30;99.90;;;;;;5055270;28;20395;-87
2022/07/11 02:31:54;;;;;;;73.80;26.73;;;18.20;99.90;;;;;;5073048;28;20758;-87
2022/07/11 02:34:20;;;;;;;73.67;26.80;;;18.20;99.90;;;;;;5148318;22;20492;-84
2022/07/11 02:36:48;;;;;;;73.10;27.20;;;18.20;99.90;;;;;;5081639;28;20414;-83
2022/07/11 02:39:14;;;;;;;73.33;30.57;;;18.20;99.90;;;;;;5080882;28;20504;-84
2022/07/11 02:41:39;;;;;;;77.73;40.50;;;18.20;99.90;;;;;;5080171;28;20416;-83
2022/07/11 02:44:07;;;;;;;79.33;40.67;;;18.10;99.90;;;;;;5079026;28;20194;-83
2022/07/11 02:46:32;;;;;;;81.60;45.00;;;18.10;99.90;;;;;;5080524;28;20160;-84
2022/07/11 02:48:58;;;;;;;81.53;40.97;;;18.10;99.90;;;;;;5080503;28;20475;-83
2022/07/11 02:51:24;;;;;;;75.77;36.37;;;18.10;99.90;;;;;;5079265;28;20651;-83
2022/07/11 02:53:49;;;;;;;77.77;41.50;;;18.00;99.90;;;;;;5080473;28;20577;-84
2022/07/11 02:56:15;;;;;;;78.50;43.40;;;18.00;99.90;;;;;;5080158;28;20251;-83
2022/07/11 02:58:41;;;;;;;79.97;39.73;;;18.00;99.90;;;;;;5080096;28;20184;-83
2022/07/11 03:01:06;;;;;;;77.60;39.10;;;18.00;99.90;;;;;;5080064;28;20164;-84
2022/07/11 03:03:32;;;;;;;80.00;47.10;;;18.00;99.90;;;;;;5082390;28;20230;-84
2022/07/11 03:05:58;;;;;;;76.80;37.70;;;18.10;99.90;;;;;;5082659;28;20165;-83
2022/07/11 03:08:23;;;;;;;76.97;38.87;;;18.00;99.90;;;;;;5082322;28;20183;-83
2022/07/11 03:10:49;;;;;;;76.07;39.60;;;18.10;99.90;;;;;;5082809;28;20171;-83
2022/07/11 03:13:15;;;;;;;75.70;34.07;;;18.00;99.90;;;;;;5082102;28;20226;-83
2022/07/11 03:15:41;;;;;;;77.80;36.37;;;18.00;99.90;;;;;;5083230;28;20164;-84
2022/07/11 03:18:07;;;;;;;76.73;36.10;;;18.00;99.90;;;;;;5083693;28;20191;-83
2022/07/11 03:20:33;;;;;;;76.60;32.23;;;18.00;99.90;;;;;;5082738;28;20418;-84
2022/07/11 03:22:59;;;;;;;77.57;43.70;;;18.00;99.90;;;;;;5083306;28;20199;-83
2022/07/11 03:25:24;;;;;;;76.37;37.10;;;18.00;99.90;;;;;;5081709;28;20164;-84
2022/07/11 03:27:50;;;;;;;75.67;36.57;;;18.00;99.90;;;;;;5081647;28;20191;-83
2022/07/11 03:30:16;;;;;;;75.23;30.93;;;18.00;99.90;;;;;;5082210;28;20190;-83
2022/07/11 03:32:42;;;;;;;75.20;31.37;;;18.00;99.90;;;;;;5080418;28;20176;-83
2022/07/11 03:37:52;;;;;;;74.27;34.10;;;18.00;99.90;;;;;;5082979;28;20242;-83
2022/07/11 03:40:18;;;;;;;77.90;38.17;;;18.10;99.90;;;;;;5083025;28;20410;-84
2022/07/11 03:42:44;;;;;;;74.67;27.77;;;18.10;99.90;;;;;;5081902;28;20226;-83
2022/07/11 03:45:12;;;;;;;74.87;34.07;;;18.00;99.90;;;;;;5083159;28;20168;-84
2022/07/11 03:47:39;;;;;;;74.70;32.07;;;18.00;99.90;;;;;;5083608;28;20422;-83
2022/07/11 03:50:05;;;;;;;76.00;32.83;;;18.00;99.90;;;;;;5081788;28;20402;-83
2022/07/11 03:52:32;;;;;;;73.37;28.67;;;17.90;99.90;;;;;;5080465;28;20416;-83
2022/07/11 03:54:57;;;;;;;74.47;33.10;;;17.90;99.90;;;;;;5080532;28;20425;-83
2022/07/11 03:57:23;;;;;;;74.60;30.30;;;17.90;99.90;;;;;;5082976;28;20980;-83
2022/07/11 03:59:49;;;;;;;78.60;35.63;;;17.90;99.90;;;;;;5080694;28;20266;-83
2022/07/11 04:02:14;;;;;;;75.40;38.00;;;17.90;99.90;;;;;;5081093;28;20243;-84
2022/07/11 04:04:40;;;;;;;76.20;30.70;;;17.90;99.90;;;;;;5079464;28;20211;-83
2022/07/11 04:07:06;;;;;;;75.00;33.00;;;17.90;99.90;;;;;;5081775;28;20192;-83
2022/07/11 04:09:31;;;;;;;73.73;31.93;;;17.90;99.90;;;;;;5081998;28;20172;-83
2022/07/11 04:11:57;;;;;;;78.33;41.53;;;17.80;99.90;;;;;;5082057;28;20627;-83
2022/07/11 04:14:24;;;;;;;76.73;36.47;;;17.70;99.90;;;;;;5080947;28;20706;-83
2022/07/11 04:16:51;;;;;;;78.63;42.87;;;17.80;99.90;;;;;;5081130;28;20538;-84
2022/07/11 04:19:17;;;;;;;78.47;40.80;;;17.80;99.90;;;;;;5081542;28;20423;-83
2022/07/11 04:21:42;;;;;;;78.30;45.07;;;17.90;99.90;;;;;;5080863;28;20453;-83
2022/07/11 04:24:08;;;;;;;76.57;40.00;;;17.90;99.90;;;;;;5082077;28;20543;-83
2022/07/11 04:26:34;;;;;;;84.53;49.33;;;17.80;99.90;;;;;;5079465;28;20188;-83
2022/07/11 04:28:59;;;;;;;78.57;43.87;;;17.80;99.90;;;;;;5081138;28;20188;-83
2022/07/11 04:31:25;;;;;;;94.20;48.17;;;17.80;99.90;;;;;;5079684;28;20164;-83
2022/07/11 04:33:51;;;;;;;84.83;55.47;;;17.80;99.90;;;;;;5080977;28;20184;-83
2022/07/11 04:36:17;;;;;;;84.37;60.30;;;17.80;99.90;;;;;;5082563;28;20407;-84
2022/07/11 04:38:44;;;;;;;84.40;60.47;;;17.90;99.90;;;;;;5082594;28;20199;-83
2022/07/11 04:41:10;;;;;;;83.43;60.03;;;17.90;99.90;;;;;;5081227;28;20170;-84
2022/07/11 04:43:36;;;;;;;93.27;72.53;;;17.90;99.90;;;;;;5081185;28;20477;-84
2022/07/11 04:46:04;;;;;;;93.03;76.90;;;17.90;99.90;;;;;;5080854;28;20406;-83
2022/07/11 04:48:31;;;;;;;88.40;75.67;;;17.90;99.90;;;;;;5078953;28;20446;-83
2022/07/11 04:51:00;;;;;;;88.23;71.57;;;17.90;99.90;;;;;;5079708;28;20407;-83
2022/07/11 04:53:25;;;;;;;89.87;75.10;;;18.00;99.90;;;;;;5082399;28;20436;-84
2022/07/11 04:55:51;;;;;;;92.93;81.93;;;17.90;99.90;;;;;;5082167;28;20414;-84
2022/07/11 04:58:17;;;;;;;91.47;74.43;;;18.00;99.90;;;;;;5081702;28;20188;-83
2022/07/11 05:00:42;;;;;;;86.63;71.80;;;18.10;99.90;;;;;;5081423;28;20172;-83
2022/07/11 05:03:08;;;;;;;86.07;61.53;;;18.20;99.90;;;;;;5081107;28;20199;-84
2022/07/11 05:05:34;;;;;;;85.00;61.67;;;18.20;99.90;;;;;;5081310;28;20237;-84
2022/07/11 05:08:00;;;;;;;85.80;60.93;;;18.20;99.90;;;;;;5081489;28;20199;-84
2022/07/11 05:10:26;;;;;;;81.27;55.70;;;18.20;99.90;;;;;;5079521;28;20172;-83
2022/07/11 05:12:52;;;;;;;87.37;68.20;;;18.10;99.90;;;;;;5079049;28;20414;-83
2022/07/11 05:15:17;;;;;;;82.83;58.43;;;18.10;99.90;;;;;;5079855;28;20179;-84
2022/07/11 05:17:43;;;;;;;87.63;66.43;;;18.10;99.90;;;;;;5081039;28;20667;-83
2022/07/11 05:20:09;;;;;;;85.97;63.13;;;18.20;99.90;;;;;;5080481;28;20175;-83
2022/07/11 05:22:35;;;;;;;88.47;59.33;;;18.20;99.90;;;;;;5080439;28;20215;-84
2022/07/11 05:25:01;;;;;;;88.87;67.73;;;18.20;99.90;;;;;;5082029;28;20398;-84
2022/07/11 05:27:26;;;;;;;87.60;75.07;;;18.10;99.90;;;;;;5081418;28;20184;-83
2022/07/11 05:29:52;;;;;;;84.03;61.63;;;18.20;99.90;;;;;;5081551;28;20159;-84
2022/07/11 05:32:18;;;;;;;85.17;59.33;;;18.30;99.90;;;;;;5080335;28;20168;-84
2022/07/11 05:34:43;;;;;;;84.43;57.03;;;18.30;99.90;;;;;;5080185;28;20184;-84
2022/07/11 05:37:09;;;;;;;83.07;60.23;;;18.20;99.90;;;;;;5080319;28;20721;-83
2022/07/11 05:39:35;;;;;;;88.00;60.50;;;18.30;99.90;;;;;;5079959;28;20171;-83
2022/07/11 05:42:00;;;;;;;86.43;59.97;;;18.30;99.90;;;;;;5081764;28;20617;-84
2022/07/11 05:44:26;;;;;;;86.63;66.80;;;18.20;99.90;;;;;;5080989;28;20238;-84
2022/07/11 05:46:52;;;;;;;88.77;69.43;;;18.20;99.90;;;;;;5081640;28;20631;-83
2022/07/11 05:49:17;;;;;;;91.93;75.63;;;18.10;99.90;;;;;;5081453;28;20187;-84
2022/07/11 05:51:43;;;;;;;88.30;76.63;;;18.10;99.90;;;;;;5081344;28;20168;-83
2022/07/11 05:54:09;;;;;;;88.33;70.13;;;18.00;99.90;;;;;;5081537;28;20168;-84
2022/07/11 05:56:35;;;;;;;88.17;68.93;;;18.10;99.90;;;;;;5079031;28;20164;-84
2022/07/11 05:59:00;;;;;;;88.47;60.57;;;18.10;99.90;;;;;;5079642;28;20259;-84
2022/07/11 06:01:26;;;;;;;84.10;61.17;;;18.10;99.90;;;;;;5079225;28;20215;-84
2022/07/11 06:03:52;;;;;;;85.20;64.27;;;18.10;99.90;;;;;;5077500;28;20252;-83
2022/07/11 06:06:18;;;;;;;83.70;63.70;;;18.10;99.90;;;;;;5077843;28;20773;-83
2022/07/11 06:08:44;;;;;;;85.53;67.97;;;18.10;99.90;;;;;;5076697;28;20422;-83
2022/07/11 06:11:12;;;;;;;85.93;70.43;;;18.20;99.90;;;;;;5077279;28;20156;-83
2022/07/11 06:13:44;;;;;;;87.87;77.07;;;18.20;99.90;;;;;;5076875;28;20924;-83
2022/07/11 06:16:10;;;;;;;83.70;63.70;;;18.10;99.90;;;;;;5077283;28;20399;-83
2022/07/11 06:18:41;;;;;;;88.20;73.03;;;18.10;99.90;;;;;;5076523;28;20945;-83
2022/07/11 06:21:07;;;;;;;85.60;62.80;;;18.10;99.90;;;;;;5078082;28;20390;-83
2022/07/11 06:23:34;;;;;;;83.90;60.97;;;18.20;99.90;;;;;;5076653;28;20441;-84
2022/07/11 06:26:01;;;;;;;85.50;62.20;;;18.20;99.90;;;;;;5059543;28;20413;-84
2022/07/11 06:28:27;;;;;;;83.67;62.50;;;18.20;99.90;;;;;;5077425;28;20430;-84
2022/07/11 06:30:52;;;;;;;85.07;65.93;;;18.40;99.90;;;;;;5077637;28;20390;-83
2022/07/11 06:33:21;;;;;;;91.53;64.40;;;18.40;99.90;;;;;;5076192;28;20961;-84
2022/07/11 06:35:47;;;;;;;89.13;69.00;;;18.40;99.90;;;;;;5077035;28;20156;-84
2022/07/11 06:38:15;;;;;;;87.57;64.20;;;18.40;99.90;;;;;;5079619;28;20905;-83
2022/07/11 06:40:42;;;;;;;88.50;65.00;;;18.40;99.90;;;;;;5082063;28;20405;-84
2022/07/11 06:43:11;;;;;;;84.60;60.23;;;18.30;99.90;;;;;;5080807;28;20438;-84
2022/07/11 06:45:38;;;;;;;93.10;74.37;;;18.30;99.90;;;;;;5080481;28;20444;-83
2022/07/11 06:48:04;;;;;;;85.73;64.03;;;18.20;99.90;;;;;;5080884;28;20454;-84
2022/07/11 06:50:31;;;;;;;93.60;74.60;;;18.20;99.90;;;;;;5079462;28;20406;-84
2022/07/11 06:52:57;;;;;;;85.63;67.00;;;18.30;99.90;;;;;;5080476;28;20454;-83
2022/07/11 06:55:22;;;;;;;93.90;66.23;;;18.40;99.90;;;;;;5081109;28;20833;-83
2022/07/11 06:57:50;;;;;;;87.83;69.67;;;18.40;99.90;;;;;;5080806;28;20508;-83
2022/07/11 07:00:17;;;;;;;87.57;68.93;;;18.40;99.90;;;;;;5080024;28;20164;-84
2022/07/11 07:02:43;;;;;;;94.03;68.90;;;18.40;99.90;;;;;;5082240;28;20441;-84
2022/07/11 07:05:09;;;;;;;88.10;63.13;;;18.40;99.90;;;;;;5079791;28;20382;-84
2022/07/11 07:07:35;;;;;;;95.87;69.47;;;18.50;99.90;;;;;;5080435;28;20751;-83
2022/07/11 07:10:01;;;;;;;87.17;51.10;;;18.70;99.90;;;;;;5080578;28;20530;-83
2022/07/11 07:12:27;;;;;;;89.80;49.87;;;18.70;99.90;;;;;;5081687;28;20188;-84
2022/07/11 07:14:53;;;;;;;91.47;47.63;;;18.70;99.90;;;;;;5081433;28;20398;-84
2022/07/11 07:17:19;;;;;;;85.40;43.53;;;18.70;99.90;;;;;;5080747;28;20176;-83
2022/07/11 07:19:45;;;;;;;82.70;40.90;;;18.70;99.90;;;;;;5080957;28;20398;-83
2022/07/11 07:22:15;;;;;;;82.67;37.70;;;18.80;99.90;;;;;;5081609;28;20406;-84
2022/07/11 07:24:42;;;;;;;79.00;30.40;;;18.80;99.90;;;;;;5081279;28;20804;-84
2022/07/11 07:27:07;;;;;;;81.57;32.77;;;18.90;99.90;;;;;;5081813;28;20414;-84
2022/07/11 07:29:33;;;;;;;77.90;31.97;;;18.90;99.90;;;;;;5081577;28;20470;-84
2022/07/11 07:31:59;;;;;;;77.30;24.60;;;19.10;99.90;;;;;;5080968;28;20289;-84
2022/07/11 07:34:25;;;;;;;76.90;26.30;;;19.10;99.90;;;;;;5080876;28;20215;-84
2022/07/11 07:36:51;;;;;;;85.20;21.90;;;19.10;99.90;;;;;;5079692;28;20410;-83
2022/07/11 07:39:17;;;;;;;75.93;18.17;;;19.20;99.90;;;;;;5080402;28;20460;-84
2022/07/11 07:41:43;;;;;;;76.07;22.10;;;19.20;99.90;;;;;;5080402;28;20568;-84
2022/07/11 07:44:09;;;;;;;79.03;24.90;;;19.10;99.90;;;;;;5079916;28;20491;-84
2022/07/11 07:46:34;;;;;;;76.07;21.53;;;19.00;99.90;;;;;;5079893;28;20247;-84
2022/07/11 07:49:00;;;;;;;74.87;20.80;;;18.90;99.90;;;;;;5080599;28;20493;-84
2022/07/11 07:51:26;;;;;;;77.67;24.60;;;19.00;99.90;;;;;;5081097;28;20724;-84
2022/07/11 07:53:52;;;;;;;78.27;29.80;;;18.90;99.90;;;;;;5079685;28;20179;-84
2022/07/11 07:56:17;;;;;;;79.63;31.10;;;18.90;99.90;;;;;;5081544;28;20243;-85
2022/07/11 07:58:43;;;;;;;81.17;33.83;;;18.90;99.90;;;;;;5082171;28;20188;-85
2022/07/11 08:03:54;;;;;;;78.30;24.73;;;19.00;99.90;;;;;;5082960;28;20211;-85
2022/07/11 08:06:20;;;;;;;79.17;24.93;;;19.10;99.90;;;;;;5083410;28;20974;-85
2022/07/11 08:08:46;;;;;;;76.60;26.87;;;19.10;99.90;;;;;;5083042;28;20422;-85
2022/07/11 08:11:15;;;;;;;77.67;30.17;;;19.10;99.90;;;;;;5083033;28;20187;-86
2022/07/11 08:13:40;;;;;;;78.73;34.47;;;19.10;99.90;;;;;;5082269;28;20164;-85
2022/07/11 08:16:06;;;;;;;78.90;33.03;;;19.00;99.90;;;;;;5083421;28;20421;-85
2022/07/11 08:18:33;;;;;;;78.87;36.30;;;19.10;99.90;;;;;;5082233;28;20188;-85
2022/07/11 08:20:59;;;;;;;82.53;39.37;;;19.00;99.90;;;;;;5082850;28;20395;-86
2022/07/11 08:23:28;;;;;;;77.33;32.03;;;19.10;99.90;;;;;;5082486;28;20500;-85
2022/07/11 08:25:54;;;;;;;76.97;33.60;;;19.10;99.90;;;;;;5083421;28;20399;-85
2022/07/11 08:28:20;;;;;;;74.37;28.03;;;19.10;99.90;;;;;;5082422;28;20514;-85
2022/07/11 08:30:46;;;;;;;76.37;28.17;;;19.10;99.90;;;;;;5083224;28;20885;-86
2022/07/11 08:35:37;;;;;;;76.57;28.53;;;19.10;99.90;;;;;;5148812;22;20508;-85
2022/07/11 08:38:03;;;;;;;77.20;22.67;;;19.10;99.90;;;;;;5083681;28;20183;-86
2022/07/11 08:40:29;;;;;;;73.83;19.07;;;19.20;99.90;;;;;;5065965;28;20395;-87
2022/07/11 08:42:59;;;;;;;72.60;18.23;;;19.30;99.90;;;;;;5065571;28;20452;-86
2022/07/11 08:45:31;;;;;;;75.37;13.37;;;19.50;99.90;;;;;;5084668;28;20906;-87
2022/07/11 08:47:59;;;;;;;71.00;11.40;;;19.70;99.90;;;;;;5085935;28;20421;-86
2022/07/11 08:50:27;;;;;;;71.33;11.37;;;19.80;99.90;;;;;;5086942;28;20410;-87
2022/07/11 08:52:58;;;;;;;69.20;11.70;;;19.80;99.90;;;;;;5086070;28;20409;-87
2022/07/11 08:55:24;;;;;;;69.07;9.20;;;19.90;99.90;;;;;;5084502;28;20757;-86
2022/07/11 08:57:50;;;;;;;68.63;8.97;;;19.80;99.90;;;;;;5085535;28;20429;-87
2022/07/11 09:00:16;;;;;;;67.27;8.80;;;20.00;99.90;;;;;;5084012;28;20398;-87
2022/07/11 09:02:44;;;;;;;66.60;7.50;;;20.10;99.90;;;;;;5066383;28;20435;-87
2022/07/11 09:05:10;;;;;;;65.40;6.03;;;20.20;99.90;;;;;;5084107;28;20398;-87
2022/07/11 09:07:47;;;;;;;65.67;6.13;;;20.10;99.90;;;;;;5066972;28;20423;-87
2022/07/11 09:10:16;;;;;;;66.77;6.90;;;20.20;99.90;;;;;;5084535;28;20404;-87
2022/07/11 09:13:02;;;;;;;65.73;6.03;;;20.20;99.90;;;;;;5085593;28;20413;-87
2022/07/11 09:15:43;;;;;;;69.70;7.00;;;20.20;99.90;;;;;;5086997;28;20403;-87
2022/07/11 09:18:35;;;;;;;66.00;6.87;;;20.10;99.90;;;;;;5068409;28;20436;-87
2022/07/11 09:26:40;;;;;;;66.50;6.40;;;20.00;99.90;;;;;;5084461;28;20390;-86
2022/07/11 09:29:12;;;;;;;71.47;6.77;;;20.20;99.90;;;;;;5066279;28;20901;-86
2022/07/11 09:31:40;;;;;;;66.00;6.93;;;20.20;99.90;;;;;;5067698;28;20398;-86
2022/07/11 09:34:11;;;;;;;68.10;6.10;;;20.30;99.90;;;;;;5065777;28;20430;-87
2022/07/11 09:36:51;;;;;;;64.30;4.80;;;20.40;99.90;;;;;;5065870;28;20478;-87
2022/07/11 09:39:19;;;;;;;65.27;5.40;;;20.50;99.90;;;;;;5064792;28;20414;-87
2022/07/11 09:41:46;;;;;;;64.80;5.43;;;20.50;99.90;;;;;;5083887;28;20387;-87
2022/07/11 09:44:33;;;;;;;67.87;6.47;;;20.60;99.90;;;;;;5065160;28;20452;-86
2022/07/11 09:46:59;;;;;;;65.50;4.70;;;20.80;99.90;;;;;;5084073;28;20437;-87
2022/07/11 09:49:34;;;;;;;65.67;5.50;;;21.00;97.30;;;;;;5083316;28;20400;-87
2022/07/11 09:52:11;;;;;;;66.47;6.20;;;21.30;97.20;;;;;;5084273;28;20405;-87
2022/07/11 09:55:05;;;;;;;67.67;7.00;;;21.20;88.80;;;;;;5083031;28;20434;-86
2022/07/11 09:57:36;;;;;;;67.30;7.00;;;21.30;91.30;;;;;;5079003;28;20493;-86
2022/07/11 10:00:08;;;;;;;66.60;6.00;;;21.40;88.90;;;;;;5083425;28;20485;-86
2022/07/11 10:02:34;;;;;;;66.47;7.30;;;21.30;88.40;;;;;;5065486;28;20776;-86
2022/07/11 10:05:01;;;;;;;65.67;6.90;;;21.10;86.90;;;;;;5064478;28;20432;-84
2022/07/11 10:07:28;;;;;;;66.27;7.73;;;21.00;91.60;;;;;;5056418;28;20783;-85
2022/07/11 10:09:54;;;;;;;66.57;7.90;;;21.00;93.30;;;;;;5056265;28;20481;-85
2022/07/11 10:12:24;;;;;;;67.80;6.87;;;20.90;93.90;;;;;;5076278;28;20445;-85
2022/07/11 10:14:50;;;;;;;69.97;7.20;;;20.90;94.80;;;;;;5081590;28;20170;-85
2022/07/11 10:17:37;;;;;;;66.23;8.10;;;20.80;93.60;;;;;;5061761;28;20484;-85
2022/07/11 10:20:15;;;;;;;70.07;8.63;;;20.80;95.70;;;;;;5062509;28;20410;-85
2022/07/11 10:23:04;;;;;;;65.60;6.80;;;20.80;95.80;;;;;;5060115;28;20446;-86
2022/07/11 10:25:56;;;;;;;67.70;7.40;;;20.80;96.60;;;;;;5078691;28;20406;-85
2022/07/11 10:28:40;;;;;;;66.80;8.23;;;20.90;96.40;;;;;;5026143;28;20457;-85
2022/07/11 10:31:21;;;;;;;66.10;6.60;;;21.10;96.30;;;;;;5057759;28;20433;-85
2022/07/11 10:34:04;;;;;;;66.50;7.60;;;21.10;92.70;;;;;;5076314;28;20417;-85
2022/07/11 10:36:32;;;;;;;68.37;8.97;;;21.10;92.70;;;;;;5060243;28;20410;-85
2022/07/11 10:39:24;;;;;;;67.60;8.33;;;21.20;93.40;;;;;;5076417;28;20493;-84
2022/07/11 10:41:51;;;;;;;67.10;7.47;;;21.10;91.70;;;;;;5076950;28;20383;-85
2022/07/11 10:44:17;;;;;;;66.90;8.30;;;21.00;93.10;;;;;;5077150;28;20435;-85
2022/07/11 10:46:43;;;;;;;70.67;9.50;;;20.90;93.90;;;;;;5081060;28;20886;-86
2022/07/11 10:49:15;;;;;;;67.60;9.17;;;20.80;95.50;;;;;;5065302;28;20443;-86
2022/07/11 10:51:41;;;;;;;67.30;8.17;;;20.70;96.80;;;;;;5080725;28;20417;-86
2022/07/11 10:54:34;;;;;;;68.07;8.90;;;20.70;97.70;;;;;;5064591;28;20417;-86
2022/07/11 10:57:03;;;;;;;69.47;8.70;;;20.60;98.10;;;;;;5064404;28;20427;-85
2022/07/11 10:59:29;;;;;;;67.87;7.40;;;20.60;99.80;;;;;;5059467;28;20410;-85
2022/07/11 11:02:02;;;;;;;66.20;6.63;;;20.50;99.90;;;;;;5080489;28;20399;-86
2022/07/11 11:04:47;;;;;;;67.40;6.50;;;20.50;99.90;;;;;;5060396;28;20848;-86
2022/07/11 11:07:31;;;;;;;68.73;7.20;;;20.50;99.40;;;;;;5076275;28;20756;-85
2022/07/11 11:09:58;;;;;;;67.40;7.53;;;20.50;99.90;;;;;;5059734;28;20927;-85
2022/07/11 11:13:09;;;;;;;67.00;8.40;;;20.60;99.90;;;;;;5080364;28;20449;-86
2022/07/11 11:15:50;;;;;;;70.70;7.93;;;20.80;98.10;;;;;;5062641;28;20414;-85
2022/07/11 11:18:24;;;;;;;67.67;8.27;;;20.90;98.20;;;;;;5079514;28;20425;-86
2022/07/11 11:21:00;;;;;;;67.10;8.27;;;21.10;94.70;;;;;;5058389;28;20405;-85
2022/07/11 11:24:02;;;;;;;69.50;9.73;;;21.30;94.00;;;;;;5060380;28;20445;-85
2022/07/11 11:26:53;;;;;;;68.07;9.30;;;21.40;91.00;;;;;;5061203;28;20410;-86
2022/07/11 11:29:30;;;;;;;68.00;9.50;;;21.40;89.00;;;;;;5065282;28;20402;-85
2022/07/11 11:31:58;;;;;;;70.87;9.27;;;21.50;89.50;;;;;;5065186;28;20417;-87
2022/07/11 11:34:24;;;;;;;68.40;9.77;;;21.70;86.50;;;;;;5066216;28;20467;-85
2022/07/11 11:36:59;;;;;;;68.90;8.80;;;21.80;75.70;;;;;;5081337;28;20438;-86
2022/07/11 11:39:31;;;;;;;67.57;8.97;;;21.70;75.10;;;;;;5082038;28;20448;-86
2022/07/11 11:42:12;;;;;;;68.47;9.40;;;21.70;74.70;;;;;;5081168;28;20958;-85
2022/07/11 11:44:50;;;;;;;69.77;9.47;;;21.80;75.70;;;;;;5064286;28;20835;-85
2022/07/11 11:47:21;;;;;;;69.40;9.93;;;21.80;75.50;;;;;;5064623;28;20953;-85
2022/07/11 11:49:53;;;;;;;69.70;11.03;;;21.90;73.60;;;;;;5064291;28;20481;-85
2022/07/11 11:52:19;;;;;;;72.30;10.57;;;21.90;72.30;;;;;;5082341;28;20431;-85
2022/07/11 11:54:51;;;;;;;68.30;8.73;;;22.10;71.80;;;;;;5082766;28;20459;-85
2022/07/11 11:57:20;;;;;;;69.27;9.20;;;22.40;66.60;;;;;;5063154;28;20479;-85
2022/07/11 11:59:45;;;;;;;68.20;8.00;;;22.40;57.50;;;;;;5081911;28;20485;-85
2022/07/11 12:02:11;;;;;;;70.07;9.87;;;22.60;62.00;;;;;;5060534;28;20442;-85
2022/07/11 12:04:37;;;;;;;69.67;9.17;;;22.60;52.20;;;;;;5062402;28;20199;-86
2022/07/11 12:07:04;;;;;;;73.90;12.37;;;22.70;56.70;;;;;;5062707;28;20271;-85
2022/07/11 12:15:06;;;;;;;76.67;15.50;;;22.90;47.40;;;;;;5079675;28;20409;-85
2022/07/11 12:17:32;;;;;;;74.47;14.97;;;22.60;46.60;;;;;;5063146;28;20936;-85
2022/07/11 12:19:58;;;;;;;74.60;15.40;;;22.60;52.70;;;;;;5080107;28;20402;-85
2022/07/11 12:22:25;;;;;;;71.77;12.30;;;22.80;52.50;;;;;;5087530;28;20160;-86
2022/07/11 12:24:53;;;;;;;72.80;11.73;;;22.80;49.00;;;;;;5082685;28;20164;-85
2022/07/11 12:27:25;;;;;;;71.47;12.20;;;22.80;48.20;;;;;;5083278;28;20422;-86
2022/07/11 12:29:52;;;;;;;71.83;8.70;;;22.90;48.50;;;;;;5083214;28;20436;-86
2022/07/11 12:32:19;;;;;;;70.20;6.67;;;23.10;44.70;;;;;;5064272;28;20403;-85
2022/07/11 12:34:49;;;;;;;74.33;8.77;;;23.20;42.30;;;;;;5065532;28;20422;-86
2022/07/11 12:37:20;;;;;;;71.27;7.83;;;23.30;36.30;;;;;;5066710;28;20525;-87
2022/07/11 12:40:06;;;;;;;71.00;7.90;;;23.30;37.20;;;;;;5066291;28;20417;-86
2022/07/11 12:42:33;;;;;;;70.70;7.60;;;23.40;31.50;;;;;;5066784;28;20394;-86
2022/07/11 12:45:07;;;;;;;73.43;8.53;;;23.50;32.60;;;;;;5083448;28;20438;-86
2022/07/11 12:47:38;;;;;;;72.97;8.20;;;23.30;35.20;;;;;;5065354;28;20433;-86
2022/07/11 12:50:25;;;;;;;72.27;8.50;;;23.40;32.50;;;;;;5065672;28;20418;-85
2022/07/11 12:52:52;;;;;;;71.40;7.90;;;23.30;31.40;;;;;;5065553;28;20407;-86
2022/07/11 12:55:24;;;;;;;74.50;7.67;;;23.40;32.20;;;;;;5065191;28;20414;-85
2022/07/11 12:58:09;;;;;;;73.07;8.60;;;23.30;30.90;;;;;;5081277;28;20472;-86
2022/07/11 13:00:56;;;;;;;71.87;8.17;;;23.40;27.80;;;;;;5065826;28;20410;-87
2022/07/11 13:03:29;;;;;;;70.67;7.03;;;23.40;27.70;;;;;;5065002;28;20441;-86
2022/07/11 13:05:57;;;;;;;71.60;7.93;;;23.20;28.00;;;;;;5064709;28;21004;-86